sensor_id;sensor_type;location;lat;lon;timestamp;P1;durP1;ratioP1;P2;durP2;ratioP2
72087;SDS011;59961;50.232;8.616;2024-02-21T00:00:22;12.80;;;3.10;;
72087;SDS011;59961;50.232;8.616;2024-02-21T00:02:47;9.67;;;3.23;;
72087;SDS011;59961;50.232;8.616;2024-02-21T00:05:12;12.90;;;3.00;;
72087;SDS011;59961;50.232;8.616;2024-02-21T00:07:37;14.32;;;3.35;;
72087;SDS011;59961;50.232;8.616;2024-02-21T00:10:02;11.03;;;2.77;;
72087;SDS011;59961;50.232;8.616;2024-02-21T00:12:28;7.35;;;2.90;;
72087;SDS011;59961;50.232;8.616;2024-02-21T00:14:53;11.27;;;3.03;;
72087;SDS011;59961;50.232;8.616;2024-02-21T00:17:18;10.40;;;3.38;;
72087;SDS011;59961;50.232;8.616;2024-02-21T00:19:43;15.30;;;3.27;;
72087;SDS011;59961;50.232;8.616;2024-02-21T00:22:08;11.43;;;3.30;;
72087;SDS011;59961;50.232;8.616;2024-02-21T00:24:33;11.52;;;3.40;;
72087;SDS011;59961;50.232;8.616;2024-02-21T00:26:59;11.52;;;3.00;;
72087;SDS011;59961;50.232;8.616;2024-02-21T00:29:24;14.33;;;3.47;;
72087;SDS011;59961;50.232;8.616;2024-02-21T00:31:49;14.27;;;2.80;;
72087;SDS011;59961;50.232;8.616;2024-02-21T00:34:15;13.18;;;3.40;;
72087;SDS011;59961;50.232;8.616;2024-02-21T00:36:40;11.05;;;3.22;;
72087;SDS011;59961;50.232;8.616;2024-02-21T00:39:05;10.37;;;2.97;;
72087;SDS011;59961;50.232;8.616;2024-02-21T00:41:31;11.40;;;3.10;;
72087;SDS011;59961;50.232;8.616;2024-02-21T00:43:56;10.43;;;3.63;;
72087;SDS011;59961;50.232;8.616;2024-02-21T00:46:21;11.25;;;3.85;;
72087;SDS011;59961;50.232;8.616;2024-02-21T00:48:47;8.87;;;2.30;;
72087;SDS011;59961;50.232;8.616;2024-02-21T00:51:12;11.20;;;2.97;;
72087;SDS011;59961;50.232;8.616;2024-02-21T00:53:37;7.77;;;2.50;;
72087;SDS011;59961;50.232;8.616;2024-02-21T00:56:04;11.68;;;3.17;;
72087;SDS011;59961;50.232;8.616;2024-02-21T00:58:30;8.27;;;2.97;;
72087;SDS011;59961;50.232;8.616;2024-02-21T01:00:55;8.95;;;2.80;;
72087;SDS011;59961;50.232;8.616;2024-02-21T01:03:20;12.10;;;4.03;;
72087;SDS011;59961;50.232;8.616;2024-02-21T01:05:45;10.37;;;3.40;;
72087;SDS011;59961;50.232;8.616;2024-02-21T01:08:10;9.83;;;3.30;;
72087;SDS011;59961;50.232;8.616;2024-02-21T01:10:35;11.75;;;3.42;;
72087;SDS011;59961;50.232;8.616;2024-02-21T01:13:01;14.30;;;4.30;;
72087;SDS011;59961;50.232;8.616;2024-02-21T01:15:26;14.93;;;3.15;;
72087;SDS011;59961;50.232;8.616;2024-02-21T01:17:51;10.27;;;3.03;;
72087;SDS011;59961;50.232;8.616;2024-02-21T01:20:19;14.55;;;3.20;;
72087;SDS011;59961;50.232;8.616;2024-02-21T01:22:44;7.97;;;2.97;;
72087;SDS011;59961;50.232;8.616;2024-02-21T01:25:09;9.75;;;4.03;;
72087;SDS011;59961;50.232;8.616;2024-02-21T01:27:35;14.17;;;3.30;;
72087;SDS011;59961;50.232;8.616;2024-02-21T01:30:00;10.50;;;2.70;;
72087;SDS011;59961;50.232;8.616;2024-02-21T01:32:25;10.20;;;3.23;;
72087;SDS011;59961;50.232;8.616;2024-02-21T01:34:50;8.03;;;3.00;;
72087;SDS011;59961;50.232;8.616;2024-02-21T01:37:16;7.50;;;2.83;;
72087;SDS011;59961;50.232;8.616;2024-02-21T01:39:41;10.37;;;3.10;;
72087;SDS011;59961;50.232;8.616;2024-02-21T01:42:06;11.55;;;3.20;;
72087;SDS011;59961;50.232;8.616;2024-02-21T01:44:31;12.13;;;4.10;;
72087;SDS011;59961;50.232;8.616;2024-02-21T01:46:56;8.77;;;3.33;;
72087;SDS011;59961;50.232;8.616;2024-02-21T01:49:21;10.98;;;3.28;;
72087;SDS011;59961;50.232;8.616;2024-02-21T01:51:47;13.17;;;3.30;;
72087;SDS011;59961;50.232;8.616;2024-02-21T01:54:13;9.20;;;3.20;;
72087;SDS011;59961;50.232;8.616;2024-02-21T01:56:38;14.93;;;3.40;;
72087;SDS011;59961;50.232;8.616;2024-02-21T01:59:04;11.37;;;2.93;;
72087;SDS011;59961;50.232;8.616;2024-02-21T02:01:29;10.37;;;3.10;;
72087;SDS011;59961;50.232;8.616;2024-02-21T02:03:54;12.37;;;3.33;;
72087;SDS011;59961;50.232;8.616;2024-02-21T02:06:20;9.87;;;3.60;;
72087;SDS011;59961;50.232;8.616;2024-02-21T02:08:45;9.63;;;3.17;;
72087;SDS011;59961;50.232;8.616;2024-02-21T02:11:10;12.90;;;3.20;;
72087;SDS011;59961;50.232;8.616;2024-02-21T02:13:38;9.43;;;3.43;;
72087;SDS011;59961;50.232;8.616;2024-02-21T02:16:03;12.43;;;3.55;;
72087;SDS011;59961;50.232;8.616;2024-02-21T02:18:28;11.30;;;3.75;;
72087;SDS011;59961;50.232;8.616;2024-02-21T02:20:53;9.50;;;3.33;;
72087;SDS011;59961;50.232;8.616;2024-02-21T02:23:20;11.18;;;3.20;;
72087;SDS011;59961;50.232;8.616;2024-02-21T02:25:46;10.37;;;3.53;;
72087;SDS011;59961;50.232;8.616;2024-02-21T02:28:14;14.13;;;4.00;;
72087;SDS011;59961;50.232;8.616;2024-02-21T02:30:39;13.40;;;3.60;;
72087;SDS011;59961;50.232;8.616;2024-02-21T02:33:04;8.35;;;2.75;;
72087;SDS011;59961;50.232;8.616;2024-02-21T02:35:30;8.40;;;2.97;;
72087;SDS011;59961;50.232;8.616;2024-02-21T02:37:55;8.38;;;2.83;;
72087;SDS011;59961;50.232;8.616;2024-02-21T02:40:20;11.60;;;3.07;;
72087;SDS011;59961;50.232;8.616;2024-02-21T02:42:45;9.30;;;3.00;;
72087;SDS011;59961;50.232;8.616;2024-02-21T02:45:11;11.90;;;3.30;;
72087;SDS011;59961;50.232;8.616;2024-02-21T02:47:36;8.27;;;3.00;;
72087;SDS011;59961;50.232;8.616;2024-02-21T02:50:01;10.60;;;2.90;;
72087;SDS011;59961;50.232;8.616;2024-02-21T02:52:27;12.83;;;3.17;;
72087;SDS011;59961;50.232;8.616;2024-02-21T02:54:52;10.80;;;2.90;;
72087;SDS011;59961;50.232;8.616;2024-02-21T02:57:20;11.20;;;3.85;;
72087;SDS011;59961;50.232;8.616;2024-02-21T02:59:48;9.63;;;3.10;;
72087;SDS011;59961;50.232;8.616;2024-02-21T03:02:14;9.90;;;2.83;;
72087;SDS011;59961;50.232;8.616;2024-02-21T03:04:39;8.95;;;2.88;;
72087;SDS011;59961;50.232;8.616;2024-02-21T03:07:04;12.52;;;4.20;;
72087;SDS011;59961;50.232;8.616;2024-02-21T03:09:30;13.63;;;3.60;;
72087;SDS011;59961;50.232;8.616;2024-02-21T03:11:55;13.43;;;3.85;;
72087;SDS011;59961;50.232;8.616;2024-02-21T03:14:22;13.70;;;4.67;;
72087;SDS011;59961;50.232;8.616;2024-02-21T03:16:47;7.72;;;3.35;;
72087;SDS011;59961;50.232;8.616;2024-02-21T03:19:12;11.05;;;3.17;;
72087;SDS011;59961;50.232;8.616;2024-02-21T03:21:37;11.02;;;3.90;;
72087;SDS011;59961;50.232;8.616;2024-02-21T03:24:02;7.32;;;2.90;;
72087;SDS011;59961;50.232;8.616;2024-02-21T03:26:27;9.13;;;3.17;;
72087;SDS011;59961;50.232;8.616;2024-02-21T03:28:53;11.77;;;3.10;;
72087;SDS011;59961;50.232;8.616;2024-02-21T03:31:18;13.07;;;3.47;;
72087;SDS011;59961;50.232;8.616;2024-02-21T03:33:43;11.03;;;3.10;;
72087;SDS011;59961;50.232;8.616;2024-02-21T03:36:15;13.73;;;3.20;;
72087;SDS011;59961;50.232;8.616;2024-02-21T03:38:43;11.63;;;3.50;;
72087;SDS011;59961;50.232;8.616;2024-02-21T03:41:08;11.10;;;3.03;;
72087;SDS011;59961;50.232;8.616;2024-02-21T03:43:33;9.98;;;3.47;;
72087;SDS011;59961;50.232;8.616;2024-02-21T03:45:58;11.40;;;3.90;;
72087;SDS011;59961;50.232;8.616;2024-02-21T03:48:24;12.67;;;4.10;;
72087;SDS011;59961;50.232;8.616;2024-02-21T03:50:49;9.93;;;2.93;;
72087;SDS011;59961;50.232;8.616;2024-02-21T03:53:14;11.30;;;3.50;;
72087;SDS011;59961;50.232;8.616;2024-02-21T03:55:39;12.70;;;4.18;;
72087;SDS011;59961;50.232;8.616;2024-02-21T03:58:04;10.77;;;3.77;;
72087;SDS011;59961;50.232;8.616;2024-02-21T04:00:29;12.40;;;2.97;;
72087;SDS011;59961;50.232;8.616;2024-02-21T04:02:54;10.87;;;3.80;;
72087;SDS011;59961;50.232;8.616;2024-02-21T04:05:20;10.90;;;3.20;;
72087;SDS011;59961;50.232;8.616;2024-02-21T04:07:46;11.80;;;3.33;;
72087;SDS011;59961;50.232;8.616;2024-02-21T04:10:11;12.93;;;3.90;;
72087;SDS011;59961;50.232;8.616;2024-02-21T04:12:37;9.27;;;3.00;;
72087;SDS011;59961;50.232;8.616;2024-02-21T04:15:03;12.25;;;3.28;;
72087;SDS011;59961;50.232;8.616;2024-02-21T04:17:28;9.90;;;3.00;;
72087;SDS011;59961;50.232;8.616;2024-02-21T04:19:55;10.20;;;3.00;;
72087;SDS011;59961;50.232;8.616;2024-02-21T04:22:26;7.60;;;2.38;;
72087;SDS011;59961;50.232;8.616;2024-02-21T04:24:51;8.75;;;3.00;;
72087;SDS011;59961;50.232;8.616;2024-02-21T04:27:16;9.75;;;3.20;;
72087;SDS011;59961;50.232;8.616;2024-02-21T04:29:41;10.43;;;2.67;;
72087;SDS011;59961;50.232;8.616;2024-02-21T04:32:06;9.87;;;2.63;;
72087;SDS011;59961;50.232;8.616;2024-02-21T04:34:31;10.07;;;2.53;;
72087;SDS011;59961;50.232;8.616;2024-02-21T04:36:56;13.20;;;3.40;;
72087;SDS011;59961;50.232;8.616;2024-02-21T04:39:22;10.40;;;3.30;;
72087;SDS011;59961;50.232;8.616;2024-02-21T04:41:47;10.75;;;3.42;;
72087;SDS011;59961;50.232;8.616;2024-02-21T04:44:12;9.03;;;3.23;;
72087;SDS011;59961;50.232;8.616;2024-02-21T04:46:37;10.40;;;3.60;;
72087;SDS011;59961;50.232;8.616;2024-02-21T04:49:02;14.13;;;3.95;;
72087;SDS011;59961;50.232;8.616;2024-02-21T04:51:27;9.27;;;3.23;;
72087;SDS011;59961;50.232;8.616;2024-02-21T04:53:52;11.73;;;3.50;;
72087;SDS011;59961;50.232;8.616;2024-02-21T04:56:18;12.23;;;2.83;;
72087;SDS011;59961;50.232;8.616;2024-02-21T04:58:43;9.47;;;3.40;;
72087;SDS011;59961;50.232;8.616;2024-02-21T05:01:08;14.00;;;3.17;;
72087;SDS011;59961;50.232;8.616;2024-02-21T05:03:33;12.90;;;3.93;;
72087;SDS011;59961;50.232;8.616;2024-02-21T05:05:59;11.67;;;3.70;;
72087;SDS011;59961;50.232;8.616;2024-02-21T05:08:24;11.47;;;3.47;;
72087;SDS011;59961;50.232;8.616;2024-02-21T05:10:49;11.90;;;3.73;;
72087;SDS011;59961;50.232;8.616;2024-02-21T05:13:14;13.35;;;4.03;;
72087;SDS011;59961;50.232;8.616;2024-02-21T05:15:40;9.38;;;3.47;;
72087;SDS011;59961;50.232;8.616;2024-02-21T05:18:05;7.45;;;3.42;;
72087;SDS011;59961;50.232;8.616;2024-02-21T05:20:30;9.30;;;3.60;;
72087;SDS011;59961;50.232;8.616;2024-02-21T05:22:55;13.55;;;3.22;;
72087;SDS011;59961;50.232;8.616;2024-02-21T05:25:21;12.07;;;3.25;;
72087;SDS011;59961;50.232;8.616;2024-02-21T05:27:46;12.73;;;3.60;;
72087;SDS011;59961;50.232;8.616;2024-02-21T05:30:11;6.72;;;3.00;;
72087;SDS011;59961;50.232;8.616;2024-02-21T05:32:37;9.47;;;3.87;;
72087;SDS011;59961;50.232;8.616;2024-02-21T05:35:02;11.53;;;3.97;;
72087;SDS011;59961;50.232;8.616;2024-02-21T05:37:27;10.13;;;3.07;;
72087;SDS011;59961;50.232;8.616;2024-02-21T05:39:52;9.30;;;3.17;;
72087;SDS011;59961;50.232;8.616;2024-02-21T05:42:17;10.67;;;3.60;;
72087;SDS011;59961;50.232;8.616;2024-02-21T05:44:42;11.27;;;3.77;;
72087;SDS011;59961;50.232;8.616;2024-02-21T05:47:07;12.75;;;3.90;;
72087;SDS011;59961;50.232;8.616;2024-02-21T05:49:35;13.95;;;3.55;;
72087;SDS011;59961;50.232;8.616;2024-02-21T05:52:00;8.93;;;3.20;;
72087;SDS011;59961;50.232;8.616;2024-02-21T05:54:25;11.02;;;3.58;;
72087;SDS011;59961;50.232;8.616;2024-02-21T05:56:50;8.75;;;3.10;;
72087;SDS011;59961;50.232;8.616;2024-02-21T05:59:16;8.40;;;3.23;;
72087;SDS011;59961;50.232;8.616;2024-02-21T06:01:41;10.82;;;3.53;;
72087;SDS011;59961;50.232;8.616;2024-02-21T06:04:06;9.43;;;3.40;;
72087;SDS011;59961;50.232;8.616;2024-02-21T06:06:31;12.13;;;3.90;;
72087;SDS011;59961;50.232;8.616;2024-02-21T06:08:57;11.70;;;3.53;;
72087;SDS011;59961;50.232;8.616;2024-02-21T06:11:23;11.50;;;3.40;;
72087;SDS011;59961;50.232;8.616;2024-02-21T06:13:48;9.32;;;3.55;;
72087;SDS011;59961;50.232;8.616;2024-02-21T06:16:14;13.48;;;4.10;;
72087;SDS011;59961;50.232;8.616;2024-02-21T06:18:39;16.03;;;4.30;;
72087;SDS011;59961;50.232;8.616;2024-02-21T06:21:04;10.77;;;3.97;;
72087;SDS011;59961;50.232;8.616;2024-02-21T06:23:29;14.53;;;4.20;;
72087;SDS011;59961;50.232;8.616;2024-02-21T06:25:54;13.20;;;3.80;;
72087;SDS011;59961;50.232;8.616;2024-02-21T06:28:20;11.23;;;3.97;;
72087;SDS011;59961;50.232;8.616;2024-02-21T06:30:45;10.60;;;3.90;;
72087;SDS011;59961;50.232;8.616;2024-02-21T06:33:10;14.48;;;4.28;;
72087;SDS011;59961;50.232;8.616;2024-02-21T06:35:35;11.87;;;3.70;;
72087;SDS011;59961;50.232;8.616;2024-02-21T06:38:01;12.77;;;4.10;;
72087;SDS011;59961;50.232;8.616;2024-02-21T06:40:26;9.13;;;3.65;;
72087;SDS011;59961;50.232;8.616;2024-02-21T06:42:51;10.55;;;4.07;;
72087;SDS011;59961;50.232;8.616;2024-02-21T06:45:16;11.77;;;3.97;;
72087;SDS011;59961;50.232;8.616;2024-02-21T06:47:41;12.40;;;4.13;;
72087;SDS011;59961;50.232;8.616;2024-02-21T06:50:06;10.05;;;3.60;;
72087;SDS011;59961;50.232;8.616;2024-02-21T06:52:32;9.10;;;4.17;;
72087;SDS011;59961;50.232;8.616;2024-02-21T06:54:57;11.27;;;3.90;;
72087;SDS011;59961;50.232;8.616;2024-02-21T06:57:22;10.20;;;3.85;;
72087;SDS011;59961;50.232;8.616;2024-02-21T06:59:47;11.17;;;3.80;;
72087;SDS011;59961;50.232;8.616;2024-02-21T07:02:12;9.27;;;3.40;;
72087;SDS011;59961;50.232;8.616;2024-02-21T07:04:37;11.57;;;4.13;;
72087;SDS011;59961;50.232;8.616;2024-02-21T07:07:03;10.25;;;3.80;;
72087;SDS011;59961;50.232;8.616;2024-02-21T07:09:28;15.27;;;4.73;;
72087;SDS011;59961;50.232;8.616;2024-02-21T07:11:56;11.90;;;4.13;;
72087;SDS011;59961;50.232;8.616;2024-02-21T07:14:21;8.47;;;3.47;;
72087;SDS011;59961;50.232;8.616;2024-02-21T07:16:47;10.43;;;4.47;;
72087;SDS011;59961;50.232;8.616;2024-02-21T07:19:12;13.10;;;3.77;;
72087;SDS011;59961;50.232;8.616;2024-02-21T07:21:37;10.40;;;3.97;;
72087;SDS011;59961;50.232;8.616;2024-02-21T07:24:03;9.73;;;3.80;;
72087;SDS011;59961;50.232;8.616;2024-02-21T07:26:28;8.60;;;3.97;;
72087;SDS011;59961;50.232;8.616;2024-02-21T07:28:53;10.43;;;4.13;;
72087;SDS011;59961;50.232;8.616;2024-02-21T07:31:18;12.85;;;3.88;;
72087;SDS011;59961;50.232;8.616;2024-02-21T07:33:44;10.25;;;3.15;;
72087;SDS011;59961;50.232;8.616;2024-02-21T07:36:10;11.03;;;4.10;;
72087;SDS011;59961;50.232;8.616;2024-02-21T07:38:36;13.48;;;3.85;;
72087;SDS011;59961;50.232;8.616;2024-02-21T07:41:01;8.33;;;3.70;;
72087;SDS011;59961;50.232;8.616;2024-02-21T07:43:26;10.25;;;3.50;;
72087;SDS011;59961;50.232;8.616;2024-02-21T07:45:51;12.23;;;3.47;;
72087;SDS011;59961;50.232;8.616;2024-02-21T07:48:18;9.45;;;3.85;;
72087;SDS011;59961;50.232;8.616;2024-02-21T07:50:43;9.60;;;3.25;;
72087;SDS011;59961;50.232;8.616;2024-02-21T07:53:09;9.40;;;3.53;;
72087;SDS011;59961;50.232;8.616;2024-02-21T07:55:34;9.47;;;3.80;;
72087;SDS011;59961;50.232;8.616;2024-02-21T07:57:59;12.70;;;4.93;;
72087;SDS011;59961;50.232;8.616;2024-02-21T08:00:24;10.20;;;4.00;;
72087;SDS011;59961;50.232;8.616;2024-02-21T08:02:49;9.95;;;3.80;;
72087;SDS011;59961;50.232;8.616;2024-02-21T08:05:15;14.27;;;4.70;;
72087;SDS011;59961;50.232;8.616;2024-02-21T08:07:40;11.57;;;4.13;;
72087;SDS011;59961;50.232;8.616;2024-02-21T08:10:05;8.73;;;4.27;;
72087;SDS011;59961;50.232;8.616;2024-02-21T08:12:33;7.18;;;3.50;;
72087;SDS011;59961;50.232;8.616;2024-02-21T08:14:58;11.83;;;4.00;;
72087;SDS011;59961;50.232;8.616;2024-02-21T08:17:23;11.40;;;4.10;;
72087;SDS011;59961;50.232;8.616;2024-02-21T08:19:48;11.10;;;4.47;;
72087;SDS011;59961;50.232;8.616;2024-02-21T08:22:14;12.10;;;4.35;;
72087;SDS011;59961;50.232;8.616;2024-02-21T08:24:39;13.10;;;4.23;;
72087;SDS011;59961;50.232;8.616;2024-02-21T08:27:04;11.73;;;4.90;;
72087;SDS011;59961;50.232;8.616;2024-02-21T08:29:29;10.67;;;3.93;;
72087;SDS011;59961;50.232;8.616;2024-02-21T08:31:55;11.90;;;4.40;;
72087;SDS011;59961;50.232;8.616;2024-02-21T08:34:20;10.23;;;4.80;;
72087;SDS011;59961;50.232;8.616;2024-02-21T08:36:45;9.77;;;5.17;;
72087;SDS011;59961;50.232;8.616;2024-02-21T08:39:10;15.32;;;5.28;;
72087;SDS011;59961;50.232;8.616;2024-02-21T08:41:36;14.83;;;5.20;;
72087;SDS011;59961;50.232;8.616;2024-02-21T08:44:01;12.97;;;5.40;;
72087;SDS011;59961;50.232;8.616;2024-02-21T08:46:26;13.90;;;4.60;;
72087;SDS011;59961;50.232;8.616;2024-02-21T08:48:52;13.98;;;4.63;;
72087;SDS011;59961;50.232;8.616;2024-02-21T08:51:17;11.00;;;4.17;;
72087;SDS011;59961;50.232;8.616;2024-02-21T08:53:43;8.90;;;4.00;;
72087;SDS011;59961;50.232;8.616;2024-02-21T08:56:08;13.27;;;4.88;;
72087;SDS011;59961;50.232;8.616;2024-02-21T08:58:34;9.85;;;4.30;;
72087;SDS011;59961;50.232;8.616;2024-02-21T09:01:00;8.20;;;3.63;;
72087;SDS011;59961;50.232;8.616;2024-02-21T09:03:25;12.80;;;3.42;;
72087;SDS011;59961;50.232;8.616;2024-02-21T09:05:50;9.43;;;3.30;;
72087;SDS011;59961;50.232;8.616;2024-02-21T09:08:16;8.60;;;2.97;;
72087;SDS011;59961;50.232;8.616;2024-02-21T09:10:41;9.63;;;3.00;;
72087;SDS011;59961;50.232;8.616;2024-02-21T09:13:06;11.03;;;3.37;;
72087;SDS011;59961;50.232;8.616;2024-02-21T09:15:33;12.73;;;3.22;;
72087;SDS011;59961;50.232;8.616;2024-02-21T09:17:58;9.00;;;2.95;;
72087;SDS011;59961;50.232;8.616;2024-02-21T09:20:23;9.37;;;3.27;;
72087;SDS011;59961;50.232;8.616;2024-02-21T09:22:48;8.00;;;3.55;;
72087;SDS011;59961;50.232;8.616;2024-02-21T09:25:14;9.33;;;3.40;;
72087;SDS011;59961;50.232;8.616;2024-02-21T09:27:39;10.33;;;4.33;;
72087;SDS011;59961;50.232;8.616;2024-02-21T09:30:04;8.93;;;2.83;;
72087;SDS011;59961;50.232;8.616;2024-02-21T09:32:30;12.73;;;4.43;;
72087;SDS011;59961;50.232;8.616;2024-02-21T09:34:55;11.40;;;5.17;;
72087;SDS011;59961;50.232;8.616;2024-02-21T09:37:20;10.70;;;3.80;;
72087;SDS011;59961;50.232;8.616;2024-02-21T09:39:45;11.63;;;4.32;;
72087;SDS011;59961;50.232;8.616;2024-02-21T09:42:12;10.80;;;4.57;;
72087;SDS011;59961;50.232;8.616;2024-02-21T09:44:39;10.18;;;4.53;;
72087;SDS011;59961;50.232;8.616;2024-02-21T09:47:12;10.83;;;4.50;;
72087;SDS011;59961;50.232;8.616;2024-02-21T09:49:42;12.95;;;5.32;;
72087;SDS011;59961;50.232;8.616;2024-02-21T09:52:07;15.93;;;5.93;;
72087;SDS011;59961;50.232;8.616;2024-02-21T09:54:33;14.60;;;5.50;;
72087;SDS011;59961;50.232;8.616;2024-02-21T09:57:02;13.32;;;5.30;;
72087;SDS011;59961;50.232;8.616;2024-02-21T09:59:28;14.48;;;5.40;;
72087;SDS011;59961;50.232;8.616;2024-02-21T10:01:53;13.02;;;5.63;;
72087;SDS011;59961;50.232;8.616;2024-02-21T10:04:19;12.07;;;5.30;;
72087;SDS011;59961;50.232;8.616;2024-02-21T10:06:45;15.20;;;5.50;;
72087;SDS011;59961;50.232;8.616;2024-02-21T10:09:19;13.97;;;5.40;;
72087;SDS011;59961;50.232;8.616;2024-02-21T10:11:45;10.30;;;4.37;;
72087;SDS011;59961;50.232;8.616;2024-02-21T10:14:10;9.38;;;4.22;;
72087;SDS011;59961;50.232;8.616;2024-02-21T10:16:35;10.57;;;4.47;;
72087;SDS011;59961;50.232;8.616;2024-02-21T10:19:02;12.93;;;4.35;;
72087;SDS011;59961;50.232;8.616;2024-02-21T10:21:28;13.05;;;4.78;;
72087;SDS011;59961;50.232;8.616;2024-02-21T10:23:54;9.88;;;4.25;;
72087;SDS011;59961;50.232;8.616;2024-02-21T10:26:19;12.27;;;4.13;;
72087;SDS011;59961;50.232;8.616;2024-02-21T10:28:45;12.33;;;4.60;;
72087;SDS011;59961;50.232;8.616;2024-02-21T10:31:20;9.32;;;3.47;;
72087;SDS011;59961;50.232;8.616;2024-02-21T10:33:53;11.77;;;3.33;;
72087;SDS011;59961;50.232;8.616;2024-02-21T10:36:18;10.63;;;3.80;;
72087;SDS011;59961;50.232;8.616;2024-02-21T10:38:44;13.40;;;3.67;;
72087;SDS011;59961;50.232;8.616;2024-02-21T10:41:09;9.68;;;3.63;;
72087;SDS011;59961;50.232;8.616;2024-02-21T10:43:39;10.95;;;3.28;;
72087;SDS011;59961;50.232;8.616;2024-02-21T10:46:07;11.55;;;4.28;;
72087;SDS011;59961;50.232;8.616;2024-02-21T10:48:43;8.43;;;3.13;;
72087;SDS011;59961;50.232;8.616;2024-02-21T10:51:16;7.80;;;3.35;;
72087;SDS011;59961;50.232;8.616;2024-02-21T10:53:54;11.25;;;4.22;;
72087;SDS011;59961;50.232;8.616;2024-02-21T10:56:26;8.30;;;2.97;;
72087;SDS011;59961;50.232;8.616;2024-02-21T10:58:52;9.63;;;3.28;;
72087;SDS011;59961;50.232;8.616;2024-02-21T11:01:17;7.67;;;2.60;;
72087;SDS011;59961;50.232;8.616;2024-02-21T11:03:43;10.95;;;2.90;;
72087;SDS011;59961;50.232;8.616;2024-02-21T11:06:10;8.07;;;2.70;;
72087;SDS011;59961;50.232;8.616;2024-02-21T11:08:35;8.40;;;3.13;;
72087;SDS011;59961;50.232;8.616;2024-02-21T11:11:00;10.43;;;3.30;;
72087;SDS011;59961;50.232;8.616;2024-02-21T11:13:34;8.80;;;2.75;;
72087;SDS011;59961;50.232;8.616;2024-02-21T11:16:10;10.20;;;3.03;;
72087;SDS011;59961;50.232;8.616;2024-02-21T11:18:36;9.50;;;2.63;;
72087;SDS011;59961;50.232;8.616;2024-02-21T11:21:01;7.73;;;2.37;;
72087;SDS011;59961;50.232;8.616;2024-02-21T11:23:26;8.23;;;2.77;;
72087;SDS011;59961;50.232;8.616;2024-02-21T11:25:52;6.43;;;2.50;;
72087;SDS011;59961;50.232;8.616;2024-02-21T11:28:17;5.07;;;2.27;;
72087;SDS011;59961;50.232;8.616;2024-02-21T11:30:50;10.27;;;2.63;;
72087;SDS011;59961;50.232;8.616;2024-02-21T11:33:16;9.20;;;2.55;;
72087;SDS011;59961;50.232;8.616;2024-02-21T11:35:41;5.57;;;2.30;;
72087;SDS011;59961;50.232;8.616;2024-02-21T11:38:10;8.17;;;2.63;;
72087;SDS011;59961;50.232;8.616;2024-02-21T11:40:38;7.25;;;2.50;;
72087;SDS011;59961;50.232;8.616;2024-02-21T11:43:03;7.00;;;2.20;;
72087;SDS011;59961;50.232;8.616;2024-02-21T11:45:28;7.27;;;2.20;;
72087;SDS011;59961;50.232;8.616;2024-02-21T11:47:53;7.13;;;2.88;;
72087;SDS011;59961;50.232;8.616;2024-02-21T11:50:18;5.13;;;2.27;;
72087;SDS011;59961;50.232;8.616;2024-02-21T11:52:44;7.00;;;2.53;;
72087;SDS011;59961;50.232;8.616;2024-02-21T11:55:10;7.53;;;2.40;;
72087;SDS011;59961;50.232;8.616;2024-02-21T11:57:37;8.73;;;2.40;;
72087;SDS011;59961;50.232;8.616;2024-02-21T12:00:13;7.80;;;2.45;;
72087;SDS011;59961;50.232;8.616;2024-02-21T12:02:39;5.93;;;2.20;;
72087;SDS011;59961;50.232;8.616;2024-02-21T12:05:04;8.30;;;2.10;;
72087;SDS011;59961;50.232;8.616;2024-02-21T12:07:30;8.23;;;2.15;;
72087;SDS011;59961;50.232;8.616;2024-02-21T12:09:58;8.33;;;2.17;;
72087;SDS011;59961;50.232;8.616;2024-02-21T12:12:24;7.28;;;2.25;;
72087;SDS011;59961;50.232;8.616;2024-02-21T12:14:56;6.05;;;2.05;;
72087;SDS011;59961;50.232;8.616;2024-02-21T12:17:23;7.90;;;2.37;;
72087;SDS011;59961;50.232;8.616;2024-02-21T12:19:48;7.40;;;2.15;;
72087;SDS011;59961;50.232;8.616;2024-02-21T12:22:18;6.27;;;2.07;;
72087;SDS011;59961;50.232;8.616;2024-02-21T12:24:43;8.80;;;2.28;;
72087;SDS011;59961;50.232;8.616;2024-02-21T12:27:12;10.15;;;2.85;;
72087;SDS011;59961;50.232;8.616;2024-02-21T12:29:37;8.13;;;2.00;;
72087;SDS011;59961;50.232;8.616;2024-02-21T12:32:02;8.57;;;2.10;;
72087;SDS011;59961;50.232;8.616;2024-02-21T12:34:29;6.72;;;2.30;;
72087;SDS011;59961;50.232;8.616;2024-02-21T12:36:56;8.07;;;2.20;;
72087;SDS011;59961;50.232;8.616;2024-02-21T12:39:21;9.10;;;2.40;;
72087;SDS011;59961;50.232;8.616;2024-02-21T12:41:47;8.48;;;1.98;;
72087;SDS011;59961;50.232;8.616;2024-02-21T12:44:12;6.30;;;2.03;;
72087;SDS011;59961;50.232;8.616;2024-02-21T12:46:37;7.93;;;2.17;;
72087;SDS011;59961;50.232;8.616;2024-02-21T12:49:03;6.80;;;2.20;;
72087;SDS011;59961;50.232;8.616;2024-02-21T12:51:29;8.00;;;2.30;;
72087;SDS011;59961;50.232;8.616;2024-02-21T12:53:54;7.90;;;2.28;;
72087;SDS011;59961;50.232;8.616;2024-02-21T12:56:19;7.93;;;2.20;;
72087;SDS011;59961;50.232;8.616;2024-02-21T12:58:44;5.93;;;1.87;;
72087;SDS011;59961;50.232;8.616;2024-02-21T13:01:10;9.27;;;2.15;;
72087;SDS011;59961;50.232;8.616;2024-02-21T13:03:35;11.87;;;2.47;;
72087;SDS011;59961;50.232;8.616;2024-02-21T13:06:00;9.30;;;2.35;;
72087;SDS011;59961;50.232;8.616;2024-02-21T13:08:25;13.63;;;3.05;;
72087;SDS011;59961;50.232;8.616;2024-02-21T13:10:50;7.77;;;2.07;;
72087;SDS011;59961;50.232;8.616;2024-02-21T13:13:16;9.03;;;2.60;;
72087;SDS011;59961;50.232;8.616;2024-02-21T13:15:41;6.90;;;2.60;;
72087;SDS011;59961;50.232;8.616;2024-02-21T13:18:08;8.07;;;2.50;;
72087;SDS011;59961;50.232;8.616;2024-02-21T13:20:33;6.30;;;2.43;;
72087;SDS011;59961;50.232;8.616;2024-02-21T13:22:58;7.43;;;2.00;;
72087;SDS011;59961;50.232;8.616;2024-02-21T13:25:23;5.07;;;2.13;;
72087;SDS011;59961;50.232;8.616;2024-02-21T13:27:49;6.90;;;2.50;;
72087;SDS011;59961;50.232;8.616;2024-02-21T13:30:14;7.00;;;2.40;;
72087;SDS011;59961;50.232;8.616;2024-02-21T13:32:41;7.63;;;2.47;;
72087;SDS011;59961;50.232;8.616;2024-02-21T13:35:07;8.25;;;2.13;;
72087;SDS011;59961;50.232;8.616;2024-02-21T13:37:33;8.85;;;2.50;;
72087;SDS011;59961;50.232;8.616;2024-02-21T13:39:58;11.50;;;2.63;;
72087;SDS011;59961;50.232;8.616;2024-02-21T13:42:23;8.27;;;2.40;;
72087;SDS011;59961;50.232;8.616;2024-02-21T13:44:52;5.47;;;2.15;;
72087;SDS011;59961;50.232;8.616;2024-02-21T13:47:17;6.90;;;2.47;;
72087;SDS011;59961;50.232;8.616;2024-02-21T13:49:42;7.80;;;2.30;;
72087;SDS011;59961;50.232;8.616;2024-02-21T13:52:08;7.18;;;2.28;;
72087;SDS011;59961;50.232;8.616;2024-02-21T13:54:34;8.73;;;2.38;;
72087;SDS011;59961;50.232;8.616;2024-02-21T13:56:59;7.20;;;2.70;;
72087;SDS011;59961;50.232;8.616;2024-02-21T13:59:24;10.83;;;2.90;;
72087;SDS011;59961;50.232;8.616;2024-02-21T14:01:51;6.78;;;2.15;;
72087;SDS011;59961;50.232;8.616;2024-02-21T14:04:16;9.50;;;2.27;;
72087;SDS011;59961;50.232;8.616;2024-02-21T14:06:41;8.07;;;2.77;;
72087;SDS011;59961;50.232;8.616;2024-02-21T14:09:08;8.98;;;2.22;;
72087;SDS011;59961;50.232;8.616;2024-02-21T14:11:33;5.68;;;2.22;;
72087;SDS011;59961;50.232;8.616;2024-02-21T14:13:59;7.28;;;2.22;;
72087;SDS011;59961;50.232;8.616;2024-02-21T14:16:25;8.13;;;2.00;;
72087;SDS011;59961;50.232;8.616;2024-02-21T14:18:50;5.43;;;2.10;;
72087;SDS011;59961;50.232;8.616;2024-02-21T14:21:15;10.93;;;2.47;;
72087;SDS011;59961;50.232;8.616;2024-02-21T14:23:40;7.57;;;2.53;;
72087;SDS011;59961;50.232;8.616;2024-02-21T14:26:05;9.93;;;2.00;;
72087;SDS011;59961;50.232;8.616;2024-02-21T14:28:31;13.63;;;2.80;;
72087;SDS011;59961;50.232;8.616;2024-02-21T14:30:58;9.63;;;3.53;;